Time;durP1;ratioP1;P1;durP2;ratioP2;P2;SDS_P1;SDS_P2;PMS_P1;PMS_P2;Temp;Humidity;BMP_temperature;BMP_pressure;BME280_temperature;BME280_humidity;BME280_pressure;Samples;Min_cycle;Max_cycle;Signal;HPM_P1;HPM_P2
2021/12/26 00:02:08;;;;;;;6.80;4.13;;;3.00;99.90;;;;;;5053747;28;20048;-63
2021/12/26 00:04:37;;;;;;;7.43;4.00;;;3.00;99.90;;;;;;5066881;28;20052;-65
2021/12/26 00:07:09;;;;;;;5.65;3.78;;;3.00;99.90;;;;;;5067813;28;20045;-62
2021/12/26 00:09:42;;;;;;;6.57;3.80;;;3.00;99.90;;;;;;5036638;28;20048;-62
2021/12/26 00:12:11;;;;;;;8.38;3.55;;;3.00;99.90;;;;;;5033792;28;20044;-61
2021/12/26 00:14:43;;;;;;;5.80;3.88;;;3.00;99.90;;;;;;5050932;28;20043;-62
2021/12/26 00:17:11;;;;;;;5.55;3.55;;;3.00;99.90;;;;;;5070784;28;20044;-61
2021/12/26 00:19:39;;;;;;;7.13;3.28;;;3.00;99.90;;;;;;5070280;28;20045;-61
2021/12/26 00:22:07;;;;;;;5.93;3.60;;;3.00;99.90;;;;;;5052528;28;20044;-61
2021/12/26 00:24:35;;;;;;;6.28;3.70;;;3.00;99.90;;;;;;5046469;28;20052;-60
2021/12/26 00:27:03;;;;;;;7.50;3.22;;;3.00;99.90;;;;;;5067754;28;20048;-63
2021/12/26 00:29:37;;;;;;;4.90;3.40;;;3.00;99.90;;;;;;5067053;28;20051;-61
2021/12/26 00:32:06;;;;;;;4.20;3.10;;;3.00;99.90;;;;;;5048043;28;20052;-61
2021/12/26 00:34:35;;;;;;;4.20;2.97;;;3.00;99.90;;;;;;5048347;28;20051;-62
2021/12/26 00:37:05;;;;;;;5.63;2.70;;;3.00;99.90;;;;;;5049776;28;20052;-62
2021/12/26 00:39:35;;;;;;;7.55;3.05;;;3.00;99.90;;;;;;5057089;28;20041;-64
2021/12/26 00:42:04;;;;;;;4.00;2.63;;;3.00;99.90;;;;;;5043771;28;20400;-62
2021/12/26 00:44:34;;;;;;;5.20;3.13;;;3.00;99.90;;;;;;5069882;28;20045;-65
2021/12/26 00:47:03;;;;;;;6.50;3.60;;;3.00;99.90;;;;;;5052026;28;20905;-61
2021/12/26 00:49:33;;;;;;;4.68;2.92;;;3.00;99.90;;;;;;5051992;28;20291;-61
2021/12/26 00:52:04;;;;;;;7.32;3.33;;;3.00;99.90;;;;;;5035263;28;20047;-61
2021/12/26 00:54:34;;;;;;;5.68;3.05;;;3.00;99.90;;;;;;5062600;28;20056;-61
2021/12/26 00:57:04;;;;;;;4.30;3.03;;;3.00;99.90;;;;;;5037083;28;20041;-61
2021/12/26 00:59:35;;;;;;;4.43;3.10;;;3.00;99.90;;;;;;5066973;28;20044;-59
2021/12/26 01:02:06;;;;;;;5.97;3.10;;;2.90;99.90;;;;;;5042789;28;20041;-61
2021/12/26 01:04:34;;;;;;;5.90;3.20;;;3.00;99.90;;;;;;5044323;28;20427;-62
2021/12/26 01:07:08;;;;;;;4.55;2.97;;;2.90;99.90;;;;;;5035940;28;20048;-61
2021/12/26 01:09:36;;;;;;;4.78;3.00;;;3.00;99.90;;;;;;5049897;28;20067;-61
2021/12/26 01:12:12;;;;;;;5.93;2.90;;;3.00;99.90;;;;;;5036824;28;20049;-61
2021/12/26 01:14:48;;;;;;;4.38;2.92;;;3.00;99.90;;;;;;5075641;28;20036;-61
2021/12/26 01:17:39;;;;;;;6.45;2.70;;;3.00;99.90;;;;;;5084704;28;20431;-61
2021/12/26 01:20:48;;;;;;;5.20;3.45;;;3.00;99.90;;;;;;5051478;28;20048;-62
2021/12/26 01:23:18;;;;;;;4.78;2.55;;;3.00;99.90;;;;;;5036367;28;20051;-67
2021/12/26 01:25:47;;;;;;;4.28;2.72;;;3.00;99.90;;;;;;5068481;28;20652;-66
2021/12/26 01:28:17;;;;;;;4.97;3.40;;;3.00;99.90;;;;;;5074234;28;20051;-60
2021/12/26 01:30:47;;;;;;;5.97;3.13;;;3.00;99.90;;;;;;5034830;28;20075;-61
2021/12/26 01:33:17;;;;;;;4.15;3.17;;;3.00;99.90;;;;;;5051093;28;20052;-60
2021/12/26 01:36:01;;;;;;;4.75;3.00;;;3.00;99.90;;;;;;5031576;28;20041;-62
2021/12/26 01:39:09;;;;;;;3.95;2.58;;;3.00;99.90;;;;;;4980665;28;20427;-63
2021/12/26 01:42:01;;;;;;;4.28;2.70;;;3.00;99.90;;;;;;4982307;28;20050;-64
2021/12/26 01:44:44;;;;;;;4.85;2.97;;;3.00;99.90;;;;;;5024445;28;20063;-65
2021/12/26 01:47:16;;;;;;;4.68;3.53;;;3.00;99.90;;;;;;5050142;28;20040;-63
2021/12/26 01:49:44;;;;;;;4.43;3.30;;;3.00;99.90;;;;;;5039217;28;20045;-60
2021/12/26 01:52:12;;;;;;;4.32;3.17;;;3.00;99.90;;;;;;5046195;28;20044;-59
2021/12/26 01:54:46;;;;;;;5.03;3.05;;;3.00;99.90;;;;;;5082767;28;20056;-62
2021/12/26 01:57:17;;;;;;;4.22;3.25;;;3.00;99.90;;;;;;5043885;28;20048;-62
2021/12/26 01:59:49;;;;;;;3.72;3.10;;;3.00;99.90;;;;;;5081105;28;20048;-61
2021/12/26 02:02:45;;;;;;;3.90;2.63;;;3.00;99.90;;;;;;5056570;28;20488;-61
2021/12/26 02:05:14;;;;;;;7.32;3.53;;;3.00;99.90;;;;;;5050641;28;20040;-64
2021/12/26 02:07:49;;;;;;;3.90;2.95;;;3.00;99.90;;;;;;5050197;28;20037;-61
2021/12/26 02:10:19;;;;;;;4.35;2.72;;;3.00;99.90;;;;;;5060292;28;20045;-61
2021/12/26 02:12:48;;;;;;;4.90;3.03;;;3.00;99.90;;;;;;5040596;28;20485;-61
2021/12/26 02:15:17;;;;;;;4.43;3.28;;;3.00;99.90;;;;;;5041523;28;20049;-60
2021/12/26 02:18:14;;;;;;;5.07;3.22;;;3.00;99.90;;;;;;5048520;28;20057;-62
2021/12/26 02:28:46;;;;;;;4.70;2.90;;;3.00;99.90;;;;;;5076543;28;20296;-61
2021/12/26 02:31:16;;;;;;;4.32;2.60;;;3.00;99.90;;;;;;5042931;28;20048;-60
2021/12/26 02:33:44;;;;;;;5.07;3.38;;;3.00;99.90;;;;;;5071162;28;20487;-61
2021/12/26 02:36:14;;;;;;;4.72;3.25;;;3.00;99.90;;;;;;5069565;28;20056;-63
2021/12/26 02:38:42;;;;;;;5.13;3.50;;;3.10;99.90;;;;;;5048684;28;20040;-63
2021/12/26 02:41:10;;;;;;;5.13;3.38;;;3.00;99.90;;;;;;5027258;28;20060;-66
2021/12/26 02:43:39;;;;;;;4.53;2.95;;;3.00;99.90;;;;;;5019677;28;20048;-61
2021/12/26 02:46:16;;;;;;;4.35;3.10;;;3.00;99.90;;;;;;5074917;28;20041;-61
2021/12/26 02:48:45;;;;;;;5.43;3.25;;;3.00;99.90;;;;;;5053676;28;20040;-60
2021/12/26 02:51:19;;;;;;;5.05;3.70;;;3.10;99.90;;;;;;5043479;28;20041;-61
2021/12/26 02:53:48;;;;;;;6.55;3.50;;;3.10;99.90;;;;;;5033220;28;20049;-60
2021/12/26 02:56:18;;;;;;;5.50;3.30;;;3.00;99.90;;;;;;5044794;28;20047;-61
2021/12/26 02:58:46;;;;;;;4.55;3.08;;;3.00;99.90;;;;;;5072894;28;20488;-62
2021/12/26 03:01:21;;;;;;;5.15;2.80;;;3.00;99.90;;;;;;5064335;28;20040;-61
2021/12/26 03:03:51;;;;;;;6.32;3.58;;;3.10;99.90;;;;;;5053351;28;20048;-61
2021/12/26 03:06:32;;;;;;;4.55;3.22;;;3.10;99.90;;;;;;5061796;28;20048;-60
2021/12/26 03:09:00;;;;;;;4.75;3.13;;;3.00;99.90;;;;;;5054347;28;20049;-61
2021/12/26 03:11:28;;;;;;;5.07;3.00;;;3.10;99.90;;;;;;5060383;28;20041;-64
2021/12/26 03:13:57;;;;;;;4.72;2.75;;;3.10;99.90;;;;;;5046177;28;20049;-63
2021/12/26 03:16:24;;;;;;;4.75;3.08;;;3.10;99.90;;;;;;5051155;28;20049;-60
2021/12/26 03:18:59;;;;;;;3.90;2.70;;;3.10;99.90;;;;;;5056780;28;20040;-62
2021/12/26 03:21:28;;;;;;;4.50;2.50;;;3.10;99.90;;;;;;5062616;28;20045;-60
2021/12/26 03:24:00;;;;;;;4.88;2.95;;;3.10;99.90;;;;;;5035169;28;20052;-61
2021/12/26 03:26:28;;;;;;;5.25;2.72;;;3.10;99.90;;;;;;5059988;28;20060;-60
2021/12/26 03:28:59;;;;;;;5.43;2.85;;;3.10;99.90;;;;;;5033129;28;20045;-60
2021/12/26 03:31:29;;;;;;;3.75;2.70;;;3.10;99.90;;;;;;5076300;28;20048;-60
2021/12/26 03:33:58;;;;;;;8.18;4.30;;;3.10;99.90;;;;;;5053244;28;20048;-61
2021/12/26 03:36:25;;;;;;;3.90;2.70;;;3.10;99.90;;;;;;5059642;28;20438;-61
2021/12/26 03:38:53;;;;;;;3.58;2.60;;;3.10;99.90;;;;;;5033180;28;20426;-62
2021/12/26 03:41:32;;;;;;;3.35;2.60;;;3.10;99.90;;;;;;5034758;28;20041;-60
2021/12/26 03:44:02;;;;;;;3.72;2.60;;;3.10;99.90;;;;;;5036818;28;20045;-61
2021/12/26 03:46:31;;;;;;;3.97;2.70;;;3.10;99.90;;;;;;5051646;28;20495;-61
2021/12/26 03:49:04;;;;;;;4.25;2.70;;;3.10;99.90;;;;;;5046101;28;20048;-61
2021/12/26 03:51:33;;;;;;;3.40;2.25;;;3.10;99.90;;;;;;5048051;28;20048;-61
2021/12/26 03:54:05;;;;;;;5.13;2.67;;;3.10;99.90;;;;;;5046182;28;20045;-62
2021/12/26 03:56:33;;;;;;;3.78;2.42;;;3.20;99.90;;;;;;5020971;28;20100;-60
2021/12/26 03:59:09;;;;;;;4.30;2.63;;;3.20;99.90;;;;;;5055528;28;20042;-62
2021/12/26 04:01:39;;;;;;;3.97;2.78;;;3.20;99.90;;;;;;5055811;28;20044;-61
2021/12/26 04:04:07;;;;;;;5.55;2.97;;;3.20;99.90;;;;;;5039785;28;20055;-60
2021/12/26 04:06:39;;;;;;;3.92;2.28;;;3.20;99.90;;;;;;5065104;28;20059;-61
2021/12/26 04:09:08;;;;;;;4.20;2.92;;;3.20;99.90;;;;;;5036759;28;20051;-61
2021/12/26 04:11:39;;;;;;;3.70;2.78;;;3.20;99.90;;;;;;5043633;28;20052;-61
2021/12/26 04:14:07;;;;;;;6.43;2.63;;;3.20;99.90;;;;;;5054357;28;20033;-60
2021/12/26 04:16:35;;;;;;;3.72;2.67;;;3.20;99.90;;;;;;5056302;28;20051;-61
2021/12/26 04:19:04;;;;;;;4.53;3.20;;;3.20;99.90;;;;;;5038487;28;20511;-62
2021/12/26 04:21:32;;;;;;;5.57;3.13;;;3.20;99.90;;;;;;5046594;28;20048;-61
2021/12/26 04:24:03;;;;;;;4.50;3.00;;;3.20;99.90;;;;;;5056106;28;20037;-63
2021/12/26 04:26:31;;;;;;;4.20;3.07;;;3.20;99.90;;;;;;5078221;28;20412;-61
2021/12/26 04:29:00;;;;;;;5.10;3.28;;;3.20;99.90;;;;;;5052018;28;20289;-62
2021/12/26 04:31:28;;;;;;;5.13;3.38;;;3.30;99.90;;;;;;5045641;28;20038;-61
2021/12/26 04:33:56;;;;;;;4.38;3.05;;;3.30;99.90;;;;;;5035940;28;20048;-61
2021/12/26 04:36:23;;;;;;;5.68;3.38;;;3.20;99.90;;;;;;5044364;28;20053;-62
2021/12/26 04:38:51;;;;;;;5.10;3.15;;;3.20;99.90;;;;;;5057997;28;20504;-63
2021/12/26 04:41:19;;;;;;;6.38;3.67;;;3.20;99.90;;;;;;5045369;28;20061;-61
2021/12/26 04:44:10;;;;;;;7.20;3.50;;;3.30;99.90;;;;;;5047200;28;20070;-64
2021/12/26 04:47:02;;;;;;;6.88;3.30;;;3.30;99.90;;;;;;5053845;28;20057;-64
2021/12/26 04:49:31;;;;;;;3.95;3.10;;;3.30;99.90;;;;;;5046576;28;20044;-67
2021/12/26 04:51:59;;;;;;;5.68;3.47;;;3.30;99.90;;;;;;5048527;28;20613;-63
2021/12/26 04:54:32;;;;;;;5.07;3.25;;;3.30;99.90;;;;;;5061568;28;20040;-63
2021/12/26 04:57:00;;;;;;;4.15;3.17;;;3.30;99.90;;;;;;5084236;28;20396;-68
2021/12/26 04:59:28;;;;;;;4.63;2.95;;;3.30;99.90;;;;;;5047602;28;20041;-67
2021/12/26 05:01:55;;;;;;;6.30;3.80;;;3.30;99.90;;;;;;5068825;28;20396;-66
2021/12/26 05:04:23;;;;;;;4.60;3.10;;;3.30;99.90;;;;;;5059404;28;20037;-67
2021/12/26 05:06:51;;;;;;;4.70;3.47;;;3.30;99.90;;;;;;5059756;28;20049;-66
2021/12/26 05:09:19;;;;;;;3.55;2.97;;;3.30;99.90;;;;;;5058435;28;20036;-61
2021/12/26 05:11:48;;;;;;;7.30;3.38;;;3.40;99.90;;;;;;5074472;28;20052;-64
2021/12/26 05:14:16;;;;;;;6.30;3.75;;;3.30;99.90;;;;;;5037750;28;20040;-62
2021/12/26 05:16:44;;;;;;;5.03;3.60;;;3.40;99.90;;;;;;5035296;28;20052;-64
2021/12/26 05:19:15;;;;;;;5.85;3.55;;;3.40;99.90;;;;;;5069751;28;20037;-65
2021/12/26 05:21:43;;;;;;;5.40;3.55;;;3.40;99.90;;;;;;5035457;28;20052;-64
2021/12/26 05:24:13;;;;;;;6.05;3.97;;;3.40;99.90;;;;;;5043034;28;20056;-61
2021/12/26 05:26:42;;;;;;;;;;;3.40;99.90;;;;;;5048256;28;20041;-63
2021/12/26 05:29:11;;;;;;;7.32;4.55;;;3.40;99.90;;;;;;5063135;28;19935;-62
2021/12/26 05:31:39;;;;;;;6.32;4.50;;;3.40;99.90;;;;;;5034945;28;20512;-61
2021/12/26 05:34:10;;;;;;;6.35;4.20;;;3.40;99.90;;;;;;5072618;28;20048;-62
2021/12/26 05:36:39;;;;;;;5.68;4.10;;;3.40;99.90;;;;;;5052468;28;20504;-62
2021/12/26 05:39:07;;;;;;;6.68;4.30;;;3.40;99.90;;;;;;5046266;28;20041;-61
2021/12/26 05:41:36;;;;;;;6.60;4.22;;;3.40;99.90;;;;;;5056997;28;20041;-61
2021/12/26 05:44:13;;;;;;;7.90;4.53;;;3.40;99.90;;;;;;5046913;28;20047;-61
2021/12/26 05:46:42;;;;;;;7.50;5.05;;;3.40;99.90;;;;;;5054492;28;20052;-61
2021/12/26 05:49:13;;;;;;;6.93;4.57;;;3.40;99.90;;;;;;5059611;28;20041;-61
2021/12/26 05:51:57;;;;;;;7.70;4.60;;;3.40;99.90;;;;;;5039632;28;20052;-64
2021/12/26 05:54:32;;;;;;;7.75;5.00;;;3.40;99.90;;;;;;5064387;28;20048;-62
2021/12/26 05:57:01;;;;;;;8.07;5.28;;;3.40;99.90;;;;;;5063257;28;20102;-61
2021/12/26 05:59:33;;;;;;;8.13;5.05;;;3.40;99.90;;;;;;5050941;28;20044;-62
2021/12/26 06:02:02;;;;;;;9.15;5.28;;;3.40;99.90;;;;;;5072400;28;20056;-62
2021/12/26 06:04:32;;;;;;;8.73;5.30;;;3.40;99.90;;;;;;5045257;28;20044;-63
2021/12/26 06:07:00;;;;;;;9.68;5.30;;;3.40;99.90;;;;;;5031482;28;20044;-61
2021/12/26 06:09:29;;;;;;;6.90;4.65;;;3.40;99.90;;;;;;5083460;28;20037;-61
2021/12/26 06:11:57;;;;;;;10.13;5.38;;;3.40;99.90;;;;;;5037990;28;20538;-62
2021/12/26 06:14:25;;;;;;;9.18;5.60;;;3.40;99.90;;;;;;5050730;28;20044;-65
2021/12/26 06:16:53;;;;;;;12.25;5.88;;;3.40;99.90;;;;;;5019005;28;20045;-62
2021/12/26 06:19:44;;;;;;;9.07;5.53;;;3.40;99.90;;;;;;5020102;28;20045;-64
2021/12/26 06:22:32;;;;;;;8.95;5.07;;;3.40;99.90;;;;;;5051709;28;20052;-67
2021/12/26 06:25:23;;;;;;;10.20;6.05;;;3.40;99.90;;;;;;5034764;28;20446;-63
2021/12/26 06:28:07;;;;;;;8.90;5.90;;;3.40;99.90;;;;;;5038829;28;20037;-63
2021/12/26 06:31:13;;;;;;;8.45;5.80;;;3.40;99.90;;;;;;4977377;28;20054;-61
2021/12/26 06:34:02;;;;;;;11.70;6.38;;;3.40;99.90;;;;;;4972299;28;20047;-65
2021/12/26 06:36:53;;;;;;;9.43;5.90;;;3.40;99.90;;;;;;5031080;28;20071;-62
2021/12/26 06:39:39;;;;;;;10.27;6.03;;;3.40;99.90;;;;;;5048204;28;20284;-62
2021/12/26 06:42:25;;;;;;;13.57;7.65;;;3.40;99.90;;;;;;5050441;28;20040;-62
2021/12/26 06:45:15;;;;;;;11.65;6.78;;;3.40;99.90;;;;;;5063571;28;20048;-67
2021/12/26 06:48:06;;;;;;;12.80;7.32;;;3.40;99.90;;;;;;5041585;28;20409;-68
2021/12/26 06:50:36;;;;;;;14.85;6.70;;;3.40;99.90;;;;;;5029870;28;20060;-66
2021/12/26 06:53:04;;;;;;;14.95;7.32;;;3.40;99.90;;;;;;5057836;28;20427;-67
2021/12/26 06:55:32;;;;;;;11.93;6.50;;;3.40;99.90;;;;;;5049872;28;20045;-65
2021/12/26 06:58:00;;;;;;;11.95;6.65;;;3.40;99.90;;;;;;5028685;28;20041;-64
2021/12/26 07:00:28;;;;;;;14.20;7.30;;;3.40;99.90;;;;;;5048085;28;20068;-68
2021/12/26 07:02:56;;;;;;;13.20;7.13;;;3.40;99.90;;;;;;5016689;28;20049;-67
2021/12/26 07:05:24;;;;;;;13.65;7.57;;;3.40;99.90;;;;;;5039608;28;20053;-68
2021/12/26 07:08:07;;;;;;;12.23;6.88;;;3.40;99.90;;;;;;5037812;28;20412;-69
2021/12/26 07:10:38;;;;;;;13.02;6.50;;;3.40;99.90;;;;;;5045373;28;20048;-66
2021/12/26 07:13:05;;;;;;;12.45;7.05;;;3.40;99.90;;;;;;5057388;28;20067;-69
2021/12/26 07:15:35;;;;;;;14.47;7.37;;;3.50;99.90;;;;;;5049432;28;20047;-63
2021/12/26 07:18:03;;;;;;;12.52;7.03;;;3.50;99.90;;;;;;5071476;28;20049;-66
2021/12/26 07:20:34;;;;;;;12.10;6.72;;;3.50;99.90;;;;;;5066393;28;20053;-67
2021/12/26 07:23:21;;;;;;;12.02;6.97;;;3.50;99.90;;;;;;5052652;28;20041;-65
2021/12/26 07:25:55;;;;;;;11.52;6.38;;;3.50;99.90;;;;;;5077523;28;20036;-66
2021/12/26 07:28:23;;;;;;;11.77;6.38;;;3.50;99.90;;;;;;5034480;28;20040;-62
2021/12/26 07:31:00;;;;;;;10.73;6.22;;;3.50;99.90;;;;;;5048112;28;20040;-64
2021/12/26 07:33:29;;;;;;;10.93;6.72;;;3.50;99.90;;;;;;5057093;28;20044;-62
2021/12/26 07:36:04;;;;;;;10.82;6.82;;;3.50;99.90;;;;;;5030333;28;20048;-62
2021/12/26 07:38:52;;;;;;;10.48;6.57;;;3.50;99.90;;;;;;5050490;28;20048;-62
2021/12/26 07:41:33;;;;;;;12.77;7.13;;;3.50;99.90;;;;;;5047548;28;20047;-65
2021/12/26 07:44:01;;;;;;;11.18;6.40;;;3.50;99.90;;;;;;5032127;28;20051;-69
2021/12/26 07:46:52;;;;;;;11.88;6.47;;;3.50;99.90;;;;;;5051661;28;20041;-69
2021/12/26 07:49:22;;;;;;;13.38;7.13;;;3.50;99.90;;;;;;5040438;28;20065;-69
2021/12/26 07:52:17;;;;;;;11.68;5.97;;;3.50;99.90;;;;;;5053643;28;20388;-62
2021/12/26 07:55:11;;;;;;;10.85;6.40;;;3.60;99.90;;;;;;5063412;28;20041;-70
2021/12/26 07:57:58;;;;;;;11.27;6.32;;;3.60;99.90;;;;;;5068600;28;20048;-65
2021/12/26 08:00:47;;;;;;;9.93;6.15;;;3.60;99.90;;;;;;5051311;28;20056;-65
2021/12/26 08:03:39;;;;;;;10.82;6.28;;;3.50;99.90;;;;;;5060698;28;20056;-64
2021/12/26 08:06:25;;;;;;;11.07;6.43;;;3.60;99.90;;;;;;5064689;28;20415;-61
2021/12/26 08:08:56;;;;;;;11.63;6.95;;;3.60;99.90;;;;;;5034276;28;20052;-63
2021/12/26 08:11:24;;;;;;;14.30;7.57;;;3.50;99.90;;;;;;5020717;28;20492;-63
2021/12/26 08:13:51;;;;;;;13.88;7.03;;;3.60;99.90;;;;;;5062842;28;20040;-63
2021/12/26 08:16:19;;;;;;;13.32;7.07;;;3.60;99.90;;;;;;5037094;28;20045;-61
2021/12/26 08:18:48;;;;;;;10.20;6.18;;;3.60;99.90;;;;;;5059344;28;20040;-66
2021/12/26 08:21:16;;;;;;;10.55;6.28;;;3.60;99.90;;;;;;5067268;28;20485;-62
2021/12/26 08:23:47;;;;;;;11.35;5.90;;;3.60;99.90;;;;;;5062555;28;20488;-61
2021/12/26 08:26:14;;;;;;;11.10;6.93;;;3.60;99.90;;;;;;5036102;28;20045;-61
2021/12/26 08:28:42;;;;;;;13.82;6.70;;;3.70;99.90;;;;;;5059041;28;20059;-61
2021/12/26 08:31:10;;;;;;;11.77;6.50;;;3.70;99.90;;;;;;5057811;28;20051;-61
2021/12/26 08:33:38;;;;;;;12.68;7.00;;;3.70;99.90;;;;;;5063831;28;20135;-64
2021/12/26 08:36:07;;;;;;;11.90;6.15;;;3.70;99.90;;;;;;5029136;28;20052;-61
2021/12/26 08:38:35;;;;;;;13.75;6.88;;;3.70;99.90;;;;;;5057921;28;20047;-64
2021/12/26 08:41:10;;;;;;;12.55;6.78;;;3.70;99.90;;;;;;5066480;28;20045;-65
2021/12/26 08:43:42;;;;;;;11.15;6.60;;;3.70;99.90;;;;;;5066486;28;20048;-61
2021/12/26 08:46:11;;;;;;;10.77;6.55;;;3.70;99.90;;;;;;5046923;28;20037;-66
2021/12/26 08:48:39;;;;;;;14.07;7.07;;;3.60;99.90;;;;;;5061332;28;20048;-61
2021/12/26 08:51:07;;;;;;;14.60;6.88;;;3.70;99.90;;;;;;5068412;28;20056;-61
2021/12/26 08:53:38;;;;;;;13.20;6.95;;;3.70;99.90;;;;;;5042200;28;20051;-62
2021/12/26 08:56:06;;;;;;;12.40;7.05;;;3.70;99.90;;;;;;5064363;28;20396;-61
2021/12/26 08:58:33;;;;;;;14.90;7.65;;;3.70;99.90;;;;;;5059803;28;20044;-62
2021/12/26 09:01:02;;;;;;;14.15;7.15;;;3.70;99.90;;;;;;5050592;28;20417;-62
2021/12/26 09:03:32;;;;;;;15.63;7.57;;;3.70;99.90;;;;;;5058412;28;20063;-63
2021/12/26 09:06:01;;;;;;;14.15;7.00;;;3.70;99.90;;;;;;5066408;28;20040;-62
2021/12/26 09:08:29;;;;;;;13.20;6.95;;;3.80;99.90;;;;;;5058417;28;20052;-62
2021/12/26 09:10:56;;;;;;;19.30;8.02;;;3.80;99.90;;;;;;5046441;28;20503;-61
2021/12/26 09:13:24;;;;;;;17.45;8.27;;;3.80;99.90;;;;;;5065250;28;20055;-61
2021/12/26 09:15:53;;;;;;;15.18;8.38;;;3.80;99.90;;;;;;5064279;28;20048;-62
2021/12/26 09:18:23;;;;;;;16.83;7.63;;;3.80;99.90;;;;;;5063961;28;20056;-62
2021/12/26 09:20:53;;;;;;;17.80;7.90;;;3.80;99.90;;;;;;5047113;28;20051;-62
2021/12/26 09:23:21;;;;;;;19.23;8.52;;;3.80;99.90;;;;;;5074824;28;20048;-63
2021/12/26 09:25:48;;;;;;;19.65;9.40;;;3.80;99.90;;;;;;5042067;28;20044;-61
2021/12/26 09:28:16;;;;;;;19.90;8.40;;;3.80;99.90;;;;;;5055045;28;20048;-64
2021/12/26 09:30:44;;;;;;;16.25;7.30;;;3.80;99.90;;;;;;5061346;28;20048;-62
2021/12/26 09:33:13;;;;;;;15.52;8.32;;;3.80;99.90;;;;;;5040697;28;20044;-62
2021/12/26 09:35:41;;;;;;;19.77;8.25;;;3.80;99.90;;;;;;5065306;28;20052;-63
2021/12/26 09:38:08;;;;;;;20.88;9.23;;;3.80;99.90;;;;;;5056272;28;20661;-63
2021/12/26 09:40:36;;;;;;;18.85;8.93;;;3.90;99.90;;;;;;5077130;28;20052;-61
2021/12/26 09:43:04;;;;;;;19.55;8.55;;;3.90;99.90;;;;;;5054021;28;20045;-61
2021/12/26 09:45:32;;;;;;;17.88;8.65;;;3.90;99.90;;;;;;5063769;28;20053;-62
2021/12/26 09:48:00;;;;;;;22.98;10.10;;;3.90;99.90;;;;;;5046968;28;20048;-62
2021/12/26 09:50:28;;;;;;;17.88;8.65;;;3.90;99.90;;;;;;5054139;28;20048;-62
2021/12/26 09:52:56;;;;;;;14.77;7.35;;;3.90;99.90;;;;;;5063332;28;20048;-61
2021/12/26 09:55:29;;;;;;;21.42;9.65;;;3.90;99.90;;;;;;5061442;28;20491;-64
2021/12/26 09:57:57;;;;;;;21.23;9.55;;;3.90;99.90;;;;;;5064432;28;20037;-61
2021/12/26 10:00:43;;;;;;;21.80;10.63;;;3.90;99.90;;;;;;5033665;28;20047;-62
2021/12/26 10:03:33;;;;;;;22.95;9.32;;;3.90;99.90;;;;;;5064645;28;20373;-65
2021/12/26 10:06:13;;;;;;;21.33;10.20;;;3.90;99.90;;;;;;5053748;28;20499;-61
2021/12/26 10:08:52;;;;;;;37.65;16.17;;;4.00;99.90;;;;;;5051948;28;20053;-62
2021/12/26 10:11:25;;;;;;;24.70;10.93;;;4.00;99.90;;;;;;5056835;28;20036;-69
2021/12/26 10:14:05;;;;;;;31.30;12.85;;;4.00;99.90;;;;;;5046330;28;20499;-72
2021/12/26 10:16:42;;;;;;;28.35;13.48;;;4.00;99.90;;;;;;5062905;28;20056;-70
2021/12/26 10:19:11;;;;;;;24.63;10.63;;;4.00;99.90;;;;;;5079710;28;20411;-70
2021/12/26 10:21:44;;;;;;;19.77;10.20;;;4.00;99.90;;;;;;5055556;28;20051;-69
2021/12/26 10:24:20;;;;;;;21.45;9.98;;;4.00;99.90;;;;;;5046922;28;20241;-65
2021/12/26 10:26:55;;;;;;;24.83;11.77;;;4.00;99.90;;;;;;5051041;28;20128;-69
2021/12/26 10:29:26;;;;;;;19.58;8.65;;;4.00;99.90;;;;;;5029586;28;20075;-65
2021/12/26 10:32:02;;;;;;;36.70;15.50;;;4.10;99.90;;;;;;5048761;28;20041;-67
2021/12/26 10:34:32;;;;;;;39.20;17.42;;;4.00;99.90;;;;;;5061599;28;20065;-72
2021/12/26 10:37:04;;;;;;;41.03;18.95;;;4.10;99.90;;;;;;5062534;28;20507;-65
2021/12/26 10:39:36;;;;;;;29.50;14.02;;;4.10;99.90;;;;;;5026683;28;20569;-66
2021/12/26 10:42:07;;;;;;;22.30;10.05;;;4.10;99.90;;;;;;5039355;28;20040;-64
2021/12/26 10:44:42;;;;;;;20.60;10.60;;;4.10;99.90;;;;;;5061765;28;20044;-69
2021/12/26 10:47:17;;;;;;;20.67;10.20;;;4.10;99.90;;;;;;5063307;28;20040;-63
2021/12/26 10:49:54;;;;;;;22.90;10.25;;;4.20;99.90;;;;;;5056910;28;20492;-62
2021/12/26 10:52:26;;;;;;;23.00;10.80;;;4.20;99.90;;;;;;5061464;28;20048;-60
2021/12/26 10:55:06;;;;;;;24.25;10.18;;;4.20;99.90;;;;;;5053766;28;20314;-62
2021/12/26 10:57:36;;;;;;;21.23;10.55;;;4.20;99.90;;;;;;5049334;28;20041;-62
2021/12/26 11:00:29;;;;;;;22.35;10.48;;;4.30;99.90;;;;;;5041326;28;20479;-61
2021/12/26 11:03:04;;;;;;;18.95;8.75;;;4.30;99.90;;;;;;5053764;28;20037;-65
2021/12/26 11:05:44;;;;;;;22.73;9.90;;;4.30;99.90;;;;;;5056433;28;20048;-63
2021/12/26 11:08:16;;;;;;;19.30;9.50;;;4.30;99.90;;;;;;5038048;28;20500;-61
2021/12/26 11:10:54;;;;;;;23.73;10.10;;;4.30;99.90;;;;;;5031541;28;20041;-62
2021/12/26 11:13:40;;;;;;;21.02;10.55;;;4.30;99.90;;;;;;5045744;28;20071;-61
2021/12/26 11:16:09;;;;;;;21.70;10.25;;;4.40;99.90;;;;;;5039835;28;20056;-66
2021/12/26 11:18:37;;;;;;;22.00;10.20;;;4.40;99.90;;;;;;5044372;28;20063;-64
2021/12/26 11:21:07;;;;;;;27.05;11.68;;;4.40;99.90;;;;;;5060679;28;20484;-65
2021/12/26 11:23:38;;;;;;;21.17;9.57;;;4.40;99.90;;;;;;5045617;28;20399;-63
2021/12/26 11:26:18;;;;;;;22.33;9.55;;;4.40;99.90;;;;;;5061908;28;20079;-70
2021/12/26 11:28:49;;;;;;;26.65;12.13;;;4.50;99.90;;;;;;5059687;28;20040;-64
2021/12/26 11:31:23;;;;;;;33.53;15.20;;;4.50;99.90;;;;;;5074499;28;20045;-63
2021/12/26 11:34:04;;;;;;;29.45;12.65;;;4.50;99.90;;;;;;5034493;28;20060;-67
2021/12/26 11:36:32;;;;;;;50.90;22.23;;;4.50;99.90;;;;;;5061342;28;20041;-61
2021/12/26 11:39:22;;;;;;;27.70;11.55;;;4.50;99.90;;;;;;5061785;28;20188;-62
2021/12/26 11:42:33;;;;;;;28.92;11.20;;;4.50;99.90;;;;;;5060812;28;20049;-71
2021/12/26 11:45:42;;;;;;;24.77;10.50;;;4.50;99.90;;;;;;5059726;28;20422;-64
2021/12/26 11:48:46;;;;;;;28.55;12.63;;;4.50;99.90;;;;;;5059595;28;20045;-63
2021/12/26 11:52:10;;;;;;;26.73;11.32;;;4.50;99.90;;;;;;5060012;28;20049;-62
2021/12/26 11:55:13;;;;;;;24.13;9.55;;;4.60;99.90;;;;;;5073378;28;20048;-62
2021/12/26 11:57:43;;;;;;;29.75;11.32;;;4.50;99.90;;;;;;5028593;28;20047;-62
2021/12/26 12:00:17;;;;;;;27.30;11.30;;;4.50;99.90;;;;;;5063399;28;20040;-67
2021/12/26 12:02:51;;;;;;;30.70;11.70;;;4.50;99.90;;;;;;5058839;28;20518;-62
2021/12/26 12:05:38;;;;;;;28.23;11.50;;;4.60;99.90;;;;;;5060487;28;20386;-62
2021/12/26 12:08:12;;;;;;;30.52;11.13;;;4.60;99.90;;;;;;5046237;28;20052;-62
2021/12/26 12:10:46;;;;;;;26.00;10.65;;;4.50;99.90;;;;;;5060318;28;20143;-62
2021/12/26 12:13:23;;;;;;;28.55;11.70;;;4.60;99.90;;;;;;5059298;28;20048;-62
2021/12/26 12:16:02;;;;;;;30.67;11.63;;;4.60;99.90;;;;;;5048003;28;20059;-63
2021/12/26 12:18:39;;;;;;;38.10;13.68;;;4.60;99.90;;;;;;5047447;28;20049;-63
2021/12/26 12:21:35;;;;;;;41.92;14.95;;;4.60;99.90;;;;;;5046180;28;20048;-61
2021/12/26 12:24:17;;;;;;;36.80;15.32;;;4.60;99.90;;;;;;5062670;28;20556;-62
2021/12/26 12:26:52;;;;;;;33.92;13.00;;;4.60;99.90;;;;;;5051439;28;20060;-61
2021/12/26 12:29:29;;;;;;;37.45;14.32;;;4.60;99.90;;;;;;5063670;28;20040;-61
2021/12/26 12:32:25;;;;;;;29.50;12.85;;;4.70;99.90;;;;;;5065957;28;20063;-64
2021/12/26 12:35:03;;;;;;;41.17;16.80;;;4.70;99.90;;;;;;5049041;28;20048;-62
2021/12/26 12:37:47;;;;;;;39.75;16.42;;;4.70;99.90;;;;;;5066034;28;20052;-66
2021/12/26 12:40:28;;;;;;;33.28;13.82;;;4.80;99.90;;;;;;5041428;28;20041;-62
2021/12/26 12:43:12;;;;;;;30.10;13.10;;;4.80;99.90;;;;;;5054025;28;20499;-66
2021/12/26 12:45:55;;;;;;;46.67;19.85;;;4.80;99.90;;;;;;5045026;28;20068;-67
2021/12/26 12:48:40;;;;;;;33.97;13.30;;;4.80;99.90;;;;;;5057291;28;20059;-65
2021/12/26 12:51:14;;;;;;;29.83;12.13;;;4.80;99.90;;;;;;5061230;28;20055;-72
2021/12/26 12:53:51;;;;;;;31.08;10.63;;;4.80;99.90;;;;;;5060177;28;20048;-63
2021/12/26 12:56:41;;;;;;;37.85;14.13;;;4.80;99.90;;;;;;5065798;28;20056;-65
2021/12/26 12:59:20;;;;;;;27.55;10.88;;;4.90;99.90;;;;;;5066003;28;20045;-66
2021/12/26 13:02:17;;;;;;;30.80;12.30;;;4.90;99.90;;;;;;5061626;28;20044;-65
2021/12/26 13:04:48;;;;;;;32.80;12.57;;;4.90;99.90;;;;;;5046621;28;20304;-65
2021/12/26 13:07:25;;;;;;;33.90;13.52;;;4.90;99.90;;;;;;5064428;28;20439;-62
2021/12/26 13:09:56;;;;;;;34.35;13.23;;;4.90;99.90;;;;;;5065020;28;20053;-68
2021/12/26 13:12:25;;;;;;;38.22;14.02;;;4.90;99.90;;;;;;5064398;28;20055;-66
2021/12/26 13:14:58;;;;;;;36.13;14.35;;;4.90;99.90;;;;;;5063722;28;20044;-66
2021/12/26 13:17:26;;;;;;;35.80;13.80;;;4.90;99.90;;;;;;5062894;28;20051;-69
2021/12/26 13:19:56;;;;;;;33.55;12.68;;;5.00;99.90;;;;;;5064949;28;20051;-70
2021/12/26 13:22:53;;;;;;;42.15;13.75;;;5.00;99.90;;;;;;5036825;28;20048;-68
2021/12/26 13:25:26;;;;;;;37.58;13.43;;;5.00;99.90;;;;;;5044098;28;20411;-65
2021/12/26 13:27:56;;;;;;;37.83;13.60;;;5.00;99.90;;;;;;5051520;28;20503;-64
2021/12/26 13:30:26;;;;;;;37.97;13.85;;;5.00;99.90;;;;;;5063131;28;20049;-63
2021/12/26 13:32:55;;;;;;;37.30;14.00;;;5.00;99.90;;;;;;5046733;28;20052;-63
2021/12/26 13:35:49;;;;;;;36.55;12.38;;;5.00;99.90;;;;;;5048134;28;20071;-64